Time;durP1;ratioP1;P1;durP2;ratioP2;P2;SDS_P1;SDS_P2;PMS_P1;PMS_P2;Temp;Humidity;BMP_temperature;BMP_pressure;BME280_temperature;BME280_humidity;BME280_pressure;Samples;Min_cycle;Max_cycle;Signal;HPM_P1;HPM_P2
2022/05/18 00:00:48;;;;;;;9.15;3.20;;;17.20;99.90;;;;;;5015502;28;20022;-76
2022/05/18 00:03:16;;;;;;;7.60;2.67;;;17.10;99.90;;;;;;5016536;28;20014;-76
2022/05/18 00:05:43;;;;;;;8.25;3.00;;;17.30;99.90;;;;;;5016616;28;20028;-76
2022/05/18 00:08:09;;;;;;;6.95;2.72;;;17.10;99.90;;;;;;5016274;28;20110;-76
2022/05/18 00:10:36;;;;;;;5.50;3.13;;;17.10;99.90;;;;;;5016658;28;20038;-76
2022/05/18 00:13:04;;;;;;;8.40;3.97;;;17.00;99.90;;;;;;5016722;28;20026;-76
2022/05/18 00:15:30;;;;;;;15.45;4.03;;;17.00;99.90;;;;;;5016510;28;20096;-76
2022/05/18 00:17:57;;;;;;;9.43;3.45;;;16.90;99.90;;;;;;5015157;28;20497;-76
2022/05/18 00:20:23;;;;;;;10.85;3.97;;;16.90;99.90;;;;;;5016905;28;20032;-76
2022/05/18 00:22:55;;;;;;;10.70;4.15;;;16.80;99.90;;;;;;5014996;28;20477;-76
2022/05/18 00:25:24;;;;;;;12.73;3.80;;;16.90;99.90;;;;;;5015110;28;20026;-76
2022/05/18 00:27:49;;;;;;;8.07;3.15;;;16.80;99.90;;;;;;5016386;28;20057;-76
2022/05/18 00:30:17;;;;;;;6.82;3.75;;;16.80;99.90;;;;;;5016010;28;20065;-76
2022/05/18 00:32:43;;;;;;;9.23;3.47;;;16.70;99.90;;;;;;5016191;28;20523;-74
2022/05/18 00:35:10;;;;;;;12.60;4.43;;;16.70;99.90;;;;;;5015074;28;20026;-74
2022/05/18 00:37:35;;;;;;;9.00;3.45;;;16.70;99.90;;;;;;5016136;28;20442;-74
2022/05/18 00:40:02;;;;;;;9.07;4.32;;;16.60;99.90;;;;;;5016215;28;20029;-74
2022/05/18 00:42:29;;;;;;;11.30;3.85;;;16.60;99.90;;;;;;5016559;28;20053;-74
2022/05/18 00:44:55;;;;;;;9.55;4.07;;;16.60;99.90;;;;;;5016457;28;20026;-74
2022/05/18 00:47:22;;;;;;;12.18;4.43;;;16.50;99.90;;;;;;5015914;28;20022;-74
2022/05/18 00:49:52;;;;;;;12.77;4.40;;;16.60;99.90;;;;;;5015900;28;20021;-73
2022/05/18 00:52:24;;;;;;;16.65;4.10;;;16.40;99.90;;;;;;5016382;28;20101;-74
2022/05/18 00:54:52;;;;;;;11.02;4.75;;;16.50;99.90;;;;;;5015890;28;20053;-74
2022/05/18 00:57:36;;;;;;;12.85;4.03;;;16.40;99.90;;;;;;5014361;28;20457;-74
2022/05/18 01:00:08;;;;;;;11.25;3.92;;;16.30;99.90;;;;;;5015717;28;20022;-74
2022/05/18 01:02:37;;;;;;;8.95;4.20;;;16.30;99.90;;;;;;5014026;28;20022;-74
2022/05/18 01:05:04;;;;;;;;;;;16.20;99.90;;;;;;5016144;28;20022;-74
2022/05/18 01:07:34;;;;;;;11.45;4.38;;;16.20;99.90;;;;;;5014190;28;19905;-73
2022/05/18 01:10:00;;;;;;;9.23;4.03;;;16.20;99.90;;;;;;5014305;28;20026;-74
2022/05/18 01:12:26;;;;;;;11.85;4.70;;;16.10;99.90;;;;;;5014015;28;20026;-74
2022/05/18 01:15:00;;;;;;;8.27;3.63;;;16.10;99.90;;;;;;5015226;28;20022;-74
2022/05/18 01:17:29;;;;;;;12.38;4.10;;;16.10;99.90;;;;;;5014954;28;20065;-74
2022/05/18 01:20:05;;;;;;;11.38;4.47;;;15.90;99.90;;;;;;5015084;28;20025;-74
2022/05/18 01:22:56;;;;;;;10.75;3.85;;;15.90;99.90;;;;;;5015027;28;20022;-74
2022/05/18 01:25:53;;;;;;;7.75;4.25;;;15.90;99.90;;;;;;5014083;28;20018;-74
2022/05/18 01:28:23;;;;;;;10.70;3.95;;;15.80;99.90;;;;;;5013844;28;20038;-73
2022/05/18 01:30:49;;;;;;;5.90;3.92;;;15.80;99.90;;;;;;5015158;28;20030;-74
2022/05/18 01:33:17;;;;;;;8.48;4.13;;;15.80;99.90;;;;;;5013974;28;20030;-73
2022/05/18 01:35:44;;;;;;;11.80;3.88;;;15.70;99.90;;;;;;5015048;28;20022;-74
2022/05/18 01:38:12;;;;;;;8.07;4.00;;;15.70;99.90;;;;;;5013484;28;20477;-74
2022/05/18 01:40:46;;;;;;;9.00;4.40;;;15.70;99.90;;;;;;5014848;28;20029;-74
2022/05/18 01:43:30;;;;;;;8.55;4.10;;;15.80;99.90;;;;;;5014888;28;20026;-74
2022/05/18 01:45:59;;;;;;;10.30;4.72;;;15.60;99.90;;;;;;5013467;28;20022;-73
2022/05/18 01:48:33;;;;;;;8.90;3.83;;;15.50;99.90;;;;;;5014864;28;20393;-74
2022/05/18 01:51:01;;;;;;;10.65;3.97;;;15.50;99.90;;;;;;5013616;28;20022;-73
2022/05/18 01:53:29;;;;;;;10.98;4.20;;;15.50;99.90;;;;;;5014663;28;20509;-74
2022/05/18 01:55:55;;;;;;;8.65;4.13;;;15.50;99.90;;;;;;5013901;28;20026;-74
2022/05/18 01:58:22;;;;;;;13.52;4.82;;;15.40;99.90;;;;;;5015043;28;20025;-73
2022/05/18 02:00:49;;;;;;;13.38;5.10;;;15.40;99.90;;;;;;5015081;28;20022;-74
2022/05/18 02:03:16;;;;;;;7.78;4.65;;;15.40;99.90;;;;;;5014676;28;20026;-74
2022/05/18 02:05:42;;;;;;;11.43;4.40;;;15.30;99.90;;;;;;5014507;28;20018;-73
2022/05/18 02:08:09;;;;;;;10.55;4.47;;;15.30;99.90;;;;;;5014640;28;20507;-74
2022/05/18 02:10:35;;;;;;;11.90;5.47;;;15.30;99.90;;;;;;5014815;28;20136;-74
2022/05/18 02:13:01;;;;;;;7.88;3.90;;;15.40;99.90;;;;;;5014516;28;20026;-74
2022/05/18 02:15:27;;;;;;;8.80;4.85;;;15.20;99.90;;;;;;5013230;28;20030;-74
2022/05/18 02:17:53;;;;;;;5.88;3.75;;;15.20;99.90;;;;;;5013200;28;20026;-74
2022/05/18 02:20:19;;;;;;;12.65;5.55;;;15.20;99.90;;;;;;5014521;28;20084;-74
2022/05/18 02:22:45;;;;;;;11.57;4.47;;;15.10;99.90;;;;;;5012944;28;20026;-74
2022/05/18 02:25:11;;;;;;;9.60;5.15;;;15.10;99.90;;;;;;5014279;28;20028;-73
2022/05/18 02:27:37;;;;;;;13.48;4.70;;;15.10;99.90;;;;;;5014093;28;20032;-73
2022/05/18 02:30:05;;;;;;;10.43;4.80;;;15.10;99.90;;;;;;5012604;28;20038;-74
2022/05/18 02:32:30;;;;;;;14.20;5.22;;;15.10;99.90;;;;;;5014730;28;20028;-73
2022/05/18 02:34:56;;;;;;;12.90;6.43;;;15.10;99.90;;;;;;5014944;28;20034;-73
2022/05/18 02:37:22;;;;;;;8.45;4.65;;;15.10;99.90;;;;;;5014497;28;20029;-73
2022/05/18 02:39:48;;;;;;;12.93;6.00;;;15.10;99.90;;;;;;5013639;28;20168;-73
2022/05/18 02:42:13;;;;;;;14.10;6.70;;;15.10;99.90;;;;;;5015250;28;20033;-73
2022/05/18 02:44:39;;;;;;;12.07;6.47;;;15.10;99.90;;;;;;5014385;28;20087;-74
2022/05/18 02:47:05;;;;;;;12.40;5.18;;;15.10;99.90;;;;;;5014441;28;20041;-74
2022/05/18 02:49:31;;;;;;;12.32;6.35;;;15.10;99.90;;;;;;5014977;28;20026;-74
2022/05/18 02:51:57;;;;;;;10.27;5.40;;;15.20;99.90;;;;;;5014652;28;20104;-73
2022/05/18 02:57:08;;;;;;;10.57;5.53;;;15.20;99.90;;;;;;5016066;28;20072;-73
2022/05/18 02:59:36;;;;;;;13.95;5.88;;;15.20;99.90;;;;;;5014858;28;20034;-74
2022/05/18 03:02:02;;;;;;;9.82;6.07;;;15.20;99.90;;;;;;5013679;28;20109;-74
2022/05/18 03:04:30;;;;;;;10.60;5.32;;;15.20;99.90;;;;;;5014747;28;20444;-73
2022/05/18 03:06:58;;;;;;;14.68;6.15;;;15.20;99.90;;;;;;5012887;28;20033;-73
2022/05/18 03:09:23;;;;;;;12.07;5.65;;;15.20;99.90;;;;;;5014689;28;20121;-73
2022/05/18 03:11:50;;;;;;;9.73;5.57;;;15.20;99.90;;;;;;5013316;28;20042;-74
2022/05/18 03:14:17;;;;;;;16.80;5.85;;;15.20;99.90;;;;;;5012817;28;20026;-74
2022/05/18 03:16:44;;;;;;;10.63;5.65;;;15.20;99.90;;;;;;5014800;28;20061;-74
2022/05/18 03:19:10;;;;;;;13.20;5.43;;;15.10;99.90;;;;;;5014581;28;20026;-74
2022/05/18 03:24:21;;;;;;;12.27;5.88;;;15.20;99.90;;;;;;5014779;28;20532;-74
2022/05/18 03:26:48;;;;;;;12.30;6.05;;;15.20;99.90;;;;;;5014428;28;20022;-74
2022/05/18 03:29:14;;;;;;;14.35;6.32;;;15.20;99.90;;;;;;5013175;28;20084;-74
2022/05/18 03:31:40;;;;;;;12.60;6.70;;;15.20;99.90;;;;;;5014671;28;20109;-73
2022/05/18 03:34:08;;;;;;;12.75;6.55;;;15.30;99.90;;;;;;5014920;28;20030;-73
2022/05/18 03:36:34;;;;;;;;;;;15.30;99.90;;;;;;5013243;28;20030;-74
2022/05/18 03:39:02;;;;;;;13.38;6.30;;;15.40;99.90;;;;;;5013875;28;19932;-73
2022/05/18 03:41:28;;;;;;;9.27;5.75;;;15.40;99.90;;;;;;5015613;28;20500;-73
2022/05/18 03:43:55;;;;;;;13.65;7.20;;;15.40;99.90;;;;;;5018469;28;20104;-73
2022/05/18 03:46:23;;;;;;;13.85;6.47;;;15.40;99.90;;;;;;5018220;28;20469;-74
2022/05/18 03:48:48;;;;;;;13.37;7.13;;;15.50;99.90;;;;;;5017648;28;20022;-74
2022/05/18 03:51:16;;;;;;;11.25;5.93;;;15.50;99.90;;;;;;5017785;28;20032;-74
2022/05/18 03:53:43;;;;;;;15.05;6.63;;;15.50;99.90;;;;;;5018394;28;20030;-73
2022/05/18 03:56:09;;;;;;;13.80;7.50;;;15.50;99.90;;;;;;5018135;28;20064;-74
2022/05/18 03:58:35;;;;;;;14.18;6.95;;;15.50;99.90;;;;;;5017355;28;20018;-73
2022/05/18 04:01:01;;;;;;;13.55;7.05;;;15.50;99.90;;;;;;5017268;28;20075;-73
2022/05/18 04:03:29;;;;;;;17.35;7.18;;;15.60;99.90;;;;;;5017097;28;20088;-74
2022/05/18 04:05:54;;;;;;;15.40;6.90;;;15.60;99.90;;;;;;5015989;28;20072;-74
2022/05/18 04:08:21;;;;;;;13.10;7.25;;;15.60;99.90;;;;;;5017357;28;20058;-73
2022/05/18 04:10:47;;;;;;;17.50;8.35;;;15.70;99.90;;;;;;5018050;28;20025;-73
2022/05/18 04:13:15;;;;;;;17.20;8.30;;;15.70;99.90;;;;;;5017184;28;20030;-73
2022/05/18 04:15:44;;;;;;;13.07;8.18;;;15.70;99.90;;;;;;5018309;28;20032;-73
2022/05/18 04:18:10;;;;;;;13.70;7.10;;;15.80;99.90;;;;;;5017840;28;20026;-73
2022/05/18 04:20:36;;;;;;;11.38;7.00;;;15.90;99.90;;;;;;5017085;28;20473;-73
2022/05/18 04:23:03;;;;;;;14.88;6.68;;;15.80;99.90;;;;;;5017434;28;20017;-73
2022/05/18 04:25:29;;;;;;;12.95;6.45;;;15.90;99.90;;;;;;5017761;28;20028;-73
2022/05/18 04:27:55;;;;;;;15.85;7.22;;;15.90;99.90;;;;;;5017725;28;20080;-73
2022/05/18 04:30:24;;;;;;;13.95;7.50;;;16.00;99.90;;;;;;5017139;28;20030;-75
2022/05/18 04:32:50;;;;;;;14.40;7.45;;;15.90;99.90;;;;;;5015933;28;20061;-73
2022/05/18 04:35:17;;;;;;;14.65;7.43;;;15.90;99.90;;;;;;5017902;28;20018;-73
2022/05/18 04:37:43;;;;;;;15.50;8.02;;;15.90;99.90;;;;;;5017262;28;20044;-73
2022/05/18 04:40:10;;;;;;;17.80;7.57;;;16.00;99.90;;;;;;5017062;28;20026;-74
2022/05/18 04:42:35;;;;;;;14.10;7.28;;;16.00;99.90;;;;;;5017482;28;20022;-74
2022/05/18 04:45:02;;;;;;;11.98;5.75;;;16.10;99.90;;;;;;5015724;28;20022;-74
2022/05/18 04:47:28;;;;;;;13.77;7.50;;;16.20;99.90;;;;;;5017356;28;20033;-74
2022/05/18 04:49:55;;;;;;;15.45;6.97;;;16.30;99.90;;;;;;5017343;28;20481;-74
2022/05/18 04:52:21;;;;;;;16.75;7.70;;;16.30;99.90;;;;;;5017379;28;20021;-74
2022/05/18 04:54:47;;;;;;;12.73;7.22;;;16.40;99.90;;;;;;5015556;28;20038;-74
2022/05/18 04:57:14;;;;;;;13.65;7.28;;;16.60;99.90;;;;;;5017356;28;20484;-74
2022/05/18 04:59:40;;;;;;;11.13;6.53;;;16.70;99.90;;;;;;5017217;28;20113;-74
2022/05/18 05:02:06;;;;;;;12.15;7.00;;;16.90;99.90;;;;;;5016835;28;20064;-74
2022/05/18 05:04:32;;;;;;;13.57;7.78;;;17.00;99.90;;;;;;5016676;28;20026;-74
2022/05/18 05:06:58;;;;;;;13.65;8.20;;;17.20;99.90;;;;;;5016886;28;20018;-74
2022/05/18 05:09:24;;;;;;;11.30;7.97;;;17.40;99.90;;;;;;5015827;28;20033;-74
2022/05/18 05:11:51;;;;;;;10.32;5.65;;;17.60;99.90;;;;;;5017060;28;20025;-73
2022/05/18 05:14:17;;;;;;;11.60;6.93;;;17.70;99.90;;;;;;5015583;28;20092;-75
2022/05/18 05:16:43;;;;;;;13.13;7.35;;;17.90;99.90;;;;;;5015378;28;20520;-74
2022/05/18 05:19:08;;;;;;;13.25;7.03;;;18.20;99.90;;;;;;5015788;28;20058;-74
2022/05/18 05:21:35;;;;;;;14.30;7.13;;;18.40;99.90;;;;;;5014327;28;20120;-74
2022/05/18 05:24:04;;;;;;;14.63;7.38;;;18.80;99.90;;;;;;5015602;28;20512;-74
2022/05/18 05:26:29;;;;;;;16.55;8.45;;;19.00;99.90;;;;;;5016204;28;20552;-74
2022/05/18 05:28:55;;;;;;;16.58;8.50;;;19.10;99.90;;;;;;5015843;28;20049;-75
2022/05/18 05:31:21;;;;;;;16.73;8.63;;;19.20;99.90;;;;;;5015862;28;20033;-74
2022/05/18 05:33:46;;;;;;;13.45;7.65;;;19.30;99.90;;;;;;5016425;28;20025;-74
2022/05/18 05:36:12;;;;;;;15.30;8.00;;;19.40;99.90;;;;;;5016094;28;20037;-74
2022/05/18 05:38:38;;;;;;;16.63;8.85;;;19.50;99.90;;;;;;5015871;28;20022;-74
2022/05/18 05:41:04;;;;;;;13.90;8.52;;;19.50;99.90;;;;;;5015576;28;20033;-74
2022/05/18 05:43:31;;;;;;;19.52;8.35;;;19.60;99.90;;;;;;5015763;28;20018;-74
2022/05/18 05:46:04;;;;;;;17.27;9.32;;;19.70;99.90;;;;;;5015843;28;20022;-73
2022/05/18 05:48:31;;;;;;;16.17;9.15;;;19.70;99.90;;;;;;5016010;28;20029;-73
2022/05/18 05:50:58;;;;;;;16.63;9.00;;;19.70;99.90;;;;;;5015399;28;20044;-73
2022/05/18 05:53:24;;;;;;;17.92;9.57;;;19.70;99.90;;;;;;5014044;28;20028;-73
2022/05/18 05:55:50;;;;;;;16.25;9.35;;;19.80;99.90;;;;;;5015011;28;20022;-73
2022/05/18 05:58:17;;;;;;;19.33;9.35;;;19.80;99.90;;;;;;5015064;28;20029;-74
2022/05/18 06:00:43;;;;;;;19.27;9.88;;;19.80;99.90;;;;;;5014858;28;20022;-74
2022/05/18 06:03:09;;;;;;;15.40;8.73;;;19.80;99.90;;;;;;5014935;28;20091;-74
2022/05/18 06:05:34;;;;;;;18.60;9.10;;;19.80;99.90;;;;;;5015113;28;20029;-74
2022/05/18 06:08:00;;;;;;;14.73;8.65;;;19.90;99.90;;;;;;5015075;28;20029;-74
2022/05/18 06:10:26;;;;;;;15.57;9.35;;;19.90;99.90;;;;;;5015308;28;20029;-74
2022/05/18 06:12:51;;;;;;;17.40;8.70;;;19.90;99.90;;;;;;5013789;28;20373;-74
2022/05/18 06:15:17;;;;;;;14.15;8.82;;;19.90;99.90;;;;;;5015089;28;20041;-74
2022/05/18 06:17:43;;;;;;;16.15;8.98;;;19.90;99.90;;;;;;5014983;28;20080;-74
2022/05/18 06:20:09;;;;;;;26.50;9.70;;;19.80;99.90;;;;;;5014841;28;20393;-74
2022/05/18 06:22:35;;;;;;;20.90;9.65;;;19.90;99.90;;;;;;5014902;28;20436;-75
2022/05/18 06:25:01;;;;;;;16.88;9.15;;;19.80;99.90;;;;;;5013336;28;20018;-74
2022/05/18 06:27:26;;;;;;;15.65;10.13;;;19.80;99.90;;;;;;5014800;28;20499;-74
2022/05/18 06:29:52;;;;;;;16.08;8.75;;;19.90;99.90;;;;;;5081683;23;20045;-76
2022/05/18 06:32:18;;;;;;;20.23;9.57;;;20.00;99.90;;;;;;5054116;28;20030;-76
2022/05/18 06:34:45;;;;;;;15.50;8.95;;;22.00;99.90;;;;;;5054031;28;20036;-76
2022/05/18 06:37:13;;;;;;;22.02;10.32;;;20.10;99.90;;;;;;5052978;28;20082;-76
2022/05/18 06:39:39;;;;;;;;;;;20.10;99.90;;;;;;5054347;28;20017;-76
2022/05/18 06:42:05;;;;;;;18.85;9.57;;;20.20;99.90;;;;;;5054147;28;20324;-76
2022/05/18 06:44:31;;;;;;;18.27;9.55;;;20.30;99.90;;;;;;5053792;28;20021;-75
2022/05/18 06:47:00;;;;;;;20.80;10.48;;;20.30;99.90;;;;;;5052081;28;20024;-75
2022/05/18 06:49:27;;;;;;;18.65;10.38;;;20.30;99.90;;;;;;5052301;28;20091;-76
2022/05/18 06:51:53;;;;;;;15.90;10.45;;;20.40;99.90;;;;;;5053932;28;20025;-76
2022/05/18 06:54:19;;;;;;;18.75;9.95;;;20.50;99.90;;;;;;5053317;28;20071;-76
2022/05/18 06:56:45;;;;;;;19.25;9.95;;;20.70;99.90;;;;;;5052585;28;20048;-75
2022/05/18 06:59:13;;;;;;;24.17;10.25;;;20.90;99.90;;;;;;5053530;28;20025;-75
2022/05/18 07:01:38;;;;;;;17.55;8.52;;;21.30;99.90;;;;;;5053715;28;20060;-75
2022/05/18 07:04:06;;;;;;;16.15;9.23;;;21.50;99.90;;;;;;5053920;28;20108;-75
2022/05/18 07:06:35;;;;;;;18.52;8.65;;;21.80;99.90;;;;;;5052802;28;20025;-75
2022/05/18 07:09:04;;;;;;;14.07;7.60;;;22.00;99.90;;;;;;5053915;28;20125;-75
2022/05/18 07:11:30;;;;;;;11.48;7.20;;;22.20;99.90;;;;;;5054037;28;20025;-75
2022/05/18 07:13:58;;;;;;;14.55;7.90;;;22.20;99.90;;;;;;5052804;28;20077;-77
2022/05/18 07:16:26;;;;;;;;;;;22.00;99.90;;;;;;5055042;28;20025;-77
2022/05/18 07:18:53;;;;;;;14.50;7.70;;;22.00;99.90;;;;;;5057426;28;19909;-75
2022/05/18 07:21:20;;;;;;;14.25;8.10;;;22.00;99.90;;;;;;5058361;28;20051;-76
2022/05/18 07:23:46;;;;;;;16.77;7.60;;;22.00;99.90;;;;;;5056247;28;20017;-75
2022/05/18 07:26:13;;;;;;;13.95;8.20;;;22.20;99.90;;;;;;5057219;28;20021;-75
2022/05/18 07:28:39;;;;;;;17.50;8.75;;;23.80;99.90;;;;;;5057093;28;20559;-76
2022/05/18 07:31:05;;;;;;;20.20;8.98;;;22.70;99.90;;;;;;5057505;28;20529;-76
2022/05/18 07:33:31;;;;;;;16.05;8.50;;;22.80;99.90;;;;;;5056769;28;20021;-76
2022/05/18 07:35:57;;;;;;;13.98;9.85;;;23.00;99.90;;;;;;5057045;28;20028;-77
2022/05/18 07:38:25;;;;;;;16.17;8.40;;;22.90;99.90;;;;;;5055441;28;20025;-77
2022/05/18 07:40:52;;;;;;;12.70;8.52;;;22.90;99.90;;;;;;5056951;28;20479;-76
2022/05/18 07:43:18;;;;;;;16.50;7.93;;;23.00;99.90;;;;;;5054902;28;20026;-76
2022/05/18 07:45:49;;;;;;;14.43;7.65;;;23.20;99.90;;;;;;5055325;28;20488;-76
2022/05/18 07:48:16;;;;;;;14.13;7.50;;;23.30;99.90;;;;;;5043144;28;20045;-75
2022/05/18 07:50:42;;;;;;;16.42;7.93;;;23.50;99.90;;;;;;5055245;28;20017;-75
2022/05/18 07:53:08;;;;;;;12.85;6.20;;;23.60;99.90;;;;;;5054121;28;20106;-74
2022/05/18 07:55:34;;;;;;;14.63;6.82;;;23.60;99.90;;;;;;5053761;28;20274;-75
2022/05/18 07:58:04;;;;;;;13.27;7.20;;;23.70;99.90;;;;;;5054860;28;20013;-75
2022/05/18 08:00:30;;;;;;;16.65;7.68;;;23.80;99.90;;;;;;5055223;28;20066;-75
2022/05/18 08:02:55;;;;;;;12.55;5.85;;;23.50;99.90;;;;;;5054070;28;20547;-75
2022/05/18 08:05:21;;;;;;;12.68;5.05;;;23.60;99.90;;;;;;5057043;28;20025;-78
2022/05/18 08:07:47;;;;;;;10.45;4.15;;;23.60;99.90;;;;;;5056959;28;20035;-75
2022/05/18 08:15:45;;;;;;;9.27;3.05;;;24.10;99.90;;;;;;5057803;28;20037;-76
2022/05/18 08:18:11;;;;;;;5.85;2.40;;;23.90;99.90;;;;;;5056293;28;20017;-75
2022/05/18 08:20:39;;;;;;;6.72;2.97;;;24.00;99.90;;;;;;5055912;28;20025;-76
2022/05/18 08:23:05;;;;;;;;;;;24.00;99.90;;;;;;5057157;28;20394;-76
2022/05/18 08:25:31;;;;;;;5.50;2.10;;;23.90;99.90;;;;;;5056926;28;19905;-76
2022/05/18 08:27:57;;;;;;;5.28;1.90;;;23.80;99.90;;;;;;5056782;28;20479;-75
2022/05/18 08:30:23;;;;;;;7.95;2.35;;;23.80;99.90;;;;;;5054638;28;20039;-76
2022/05/18 08:32:50;;;;;;;3.65;1.75;;;24.00;99.90;;;;;;5056504;28;20033;-77
2022/05/18 08:35:17;;;;;;;4.68;1.70;;;24.10;99.90;;;;;;5057390;28;20515;-75
2022/05/18 08:37:48;;;;;;;5.55;2.17;;;24.50;99.90;;;;;;5056795;28;20033;-75
2022/05/18 08:40:28;;;;;;;6.35;2.35;;;24.50;99.90;;;;;;5057391;28;20480;-75
2022/05/18 08:43:00;;;;;;;5.63;1.95;;;24.40;99.90;;;;;;5057039;28;20040;-75
2022/05/18 08:45:30;;;;;;;9.30;3.42;;;24.10;99.90;;;;;;5055444;28;20017;-75
2022/05/18 08:48:15;;;;;;;5.35;2.15;;;23.80;99.90;;;;;;5057121;28;20508;-75
2022/05/18 08:50:41;;;;;;;5.57;2.50;;;23.60;99.90;;;;;;5056591;28;20017;-74
2022/05/18 08:53:31;;;;;;;6.13;2.05;;;23.50;99.90;;;;;;5057174;28;20021;-74
2022/05/18 08:56:08;;;;;;;8.45;2.20;;;23.20;99.90;;;;;;5055359;28;20419;-76
2022/05/18 08:58:45;;;;;;;6.57;2.28;;;23.20;99.90;;;;;;5055395;28;20688;-74
2022/05/18 09:01:11;;;;;;;5.18;2.13;;;23.20;99.90;;;;;;5057108;28;20032;-74
2022/05/18 09:03:52;;;;;;;3.95;1.77;;;23.40;99.90;;;;;;5057252;28;20120;-75
2022/05/18 09:06:29;;;;;;;4.15;2.05;;;23.60;99.90;;;;;;5057126;28;20485;-75
2022/05/18 09:11:52;;;;;;;8.73;4.32;;;23.80;99.90;;;;;;5056038;28;20032;-75
2022/05/18 09:14:20;;;;;;;8.70;3.50;;;23.80;99.90;;;;;;5055651;28;20476;-75
2022/05/18 09:17:16;;;;;;;6.25;2.92;;;23.60;99.90;;;;;;5056145;28;20388;-74
2022/05/18 09:20:06;;;;;;;7.50;2.38;;;23.80;99.90;;;;;;5055070;28;20110;-75
2022/05/18 09:22:52;;;;;;;8.35;3.58;;;24.00;99.90;;;;;;5055602;28;20021;-74
2022/05/18 09:25:49;;;;;;;5.85;3.10;;;24.30;99.90;;;;;;5055851;28;20025;-75
2022/05/18 09:28:32;;;;;;;6.20;2.65;;;24.40;99.90;;;;;;5055953;28;20032;-75
2022/05/18 09:31:28;;;;;;;8.75;3.08;;;24.40;99.90;;;;;;5057094;28;20029;-76
2022/05/18 09:34:16;;;;;;;5.88;3.33;;;24.40;99.90;;;;;;5055958;28;20025;-76
2022/05/18 09:37:06;;;;;;;9.27;3.30;;;24.50;99.90;;;;;;5056528;28;20159;-75
2022/05/18 09:39:38;;;;;;;9.48;3.55;;;24.40;99.90;;;;;;5055354;28;20398;-75
2022/05/18 09:42:09;;;;;;;8.05;2.28;;;24.60;99.90;;;;;;5054588;28;20025;-75
2022/05/18 09:44:43;;;;;;;9.50;3.58;;;24.80;99.90;;;;;;5054892;28;20036;-75
2022/05/18 09:47:14;;;;;;;9.75;3.90;;;25.00;99.90;;;;;;5053947;28;20116;-75
2022/05/18 09:49:46;;;;;;;6.00;2.70;;;25.10;99.90;;;;;;5055315;28;20021;-75
2022/05/18 09:52:15;;;;;;;8.07;2.95;;;25.30;99.90;;;;;;5055591;28;20017;-75
2022/05/18 09:54:41;;;;;;;7.05;4.00;;;25.30;99.90;;;;;;5055377;28;20395;-76
2022/05/18 09:57:30;;;;;;;5.90;3.38;;;25.50;99.20;;;;;;5054120;28;20063;-75
2022/05/18 10:00:00;;;;;;;8.93;3.10;;;25.20;99.90;;;;;;5046290;28;20135;-75
2022/05/18 10:08:11;;;;;;;11.40;3.83;;;25.20;99.90;;;;;;5055661;28;20040;-75
2022/05/18 10:10:38;;;;;;;11.20;4.22;;;25.20;99.90;;;;;;5054072;28;20025;-74
2022/05/18 10:13:17;;;;;;;11.13;4.30;;;25.20;99.90;;;;;;5053722;28;20403;-74
2022/05/18 10:15:59;;;;;;;9.55;3.42;;;25.30;99.90;;;;;;5053778;28;20032;-74
2022/05/18 10:18:49;;;;;;;9.88;3.00;;;25.50;99.90;;;;;;5052195;28;20116;-74
2022/05/18 10:21:38;;;;;;;8.02;3.03;;;25.70;99.90;;;;;;5053420;28;20535;-74
2022/05/18 10:24:22;;;;;;;7.10;3.97;;;25.90;99.00;;;;;;5053677;28;20029;-74
2022/05/18 10:27:14;;;;;;;9.63;3.85;;;26.00;98.40;;;;;;5053527;28;20032;-74
2022/05/18 10:29:50;;;;;;;7.55;3.60;;;26.00;95.40;;;;;;5053452;28;20075;-74
2022/05/18 10:32:22;;;;;;;8.88;4.13;;;26.20;97.90;;;;;;5053600;28;20104;-74
2022/05/18 10:34:53;;;;;;;9.63;3.65;;;26.30;97.00;;;;;;5053382;28;20027;-74
2022/05/18 10:37:31;;;;;;;12.05;3.63;;;26.40;97.10;;;;;;5053180;28;20025;-74
2022/05/18 10:40:00;;;;;;;8.80;2.92;;;26.40;97.50;;;;;;5053544;28;20029;-74
2022/05/18 10:42:28;;;;;;;5.38;2.88;;;26.50;96.70;;;;;;5052063;28;20014;-74
2022/05/18 10:44:56;;;;;;;7.15;2.50;;;26.70;93.80;;;;;;5053385;28;20021;-74
2022/05/18 10:47:29;;;;;;;11.90;3.78;;;26.50;94.20;;;;;;5053553;28;20017;-74
2022/05/18 10:50:25;;;;;;;9.45;2.70;;;26.70;91.80;;;;;;5053152;28;20032;-73
2022/05/18 10:53:12;;;;;;;5.85;2.55;;;27.00;93.50;;;;;;5056157;28;20078;-73
2022/05/18 10:56:00;;;;;;;6.50;2.43;;;27.10;91.90;;;;;;5056110;28;20440;-73
2022/05/18 10:58:39;;;;;;;6.60;2.55;;;27.20;91.60;;;;;;5056079;28;20279;-73
2022/05/18 11:01:13;;;;;;;6.30;2.22;;;27.40;91.50;;;;;;5057389;28;20029;-73
2022/05/18 11:03:49;;;;;;;5.03;2.47;;;27.70;91.80;;;;;;5057761;28;20025;-74
2022/05/18 11:06:20;;;;;;;5.28;1.55;;;27.80;89.60;;;;;;5057400;28;20079;-73
2022/05/18 11:08:47;;;;;;;3.55;2.10;;;27.90;89.70;;;;;;5055874;28;20033;-73
2022/05/18 11:11:27;;;;;;;7.38;3.20;;;27.80;86.30;;;;;;5057444;28;20476;-73
2022/05/18 11:13:52;;;;;;;4.75;1.70;;;27.70;86.10;;;;;;5056983;28;20021;-73
2022/05/18 11:16:20;;;;;;;4.95;2.30;;;27.70;85.30;;;;;;5057542;28;20384;-74
2022/05/18 11:18:57;;;;;;;4.70;1.80;;;27.70;85.90;;;;;;5055819;28;20094;-74
2022/05/18 11:21:48;;;;;;;5.70;1.43;;;27.80;82.50;;;;;;5057139;28;20353;-74
2022/05/18 11:24:27;;;;;;;6.60;2.17;;;27.80;83.10;;;;;;5057381;28;20052;-74
2022/05/18 11:27:41;;;;;;;7.25;1.98;;;28.10;83.80;;;;;;5057462;28;20021;-74
2022/05/18 11:30:11;;;;;;;8.13;2.75;;;28.50;78.70;;;;;;5046598;28;20048;-74
2022/05/18 11:33:08;;;;;;;8.98;2.63;;;28.70;75.40;;;;;;5055407;28;20082;-74
2022/05/18 11:36:00;;;;;;;10.65;2.65;;;28.80;79.20;;;;;;5056818;28;20547;-74
2022/05/18 11:39:03;;;;;;;5.78;2.30;;;28.90;74.90;;;;;;5055734;28;20379;-74
2022/05/18 11:41:53;;;;;;;7.22;2.50;;;28.80;72.90;;;;;;5057067;28;20032;-74
2022/05/18 11:44:22;;;;;;;3.47;1.70;;;28.70;74.10;;;;;;5056150;28;20029;-74
2022/05/18 11:47:13;;;;;;;9.65;2.38;;;28.50;75.70;;;;;;5055319;28;20021;-75
2022/05/18 11:50:00;;;;;;;5.75;2.05;;;28.10;77.80;;;;;;5057927;28;20028;-75
2022/05/18 11:52:35;;;;;;;4.90;1.45;;;27.70;80.30;;;;;;5056678;28;20453;-75
2022/05/18 11:55:36;;;;;;;5.57;2.25;;;27.60;81.30;;;;;;5057946;28;20413;-75
2022/05/18 11:58:17;;;;;;;5.53;2.42;;;27.50;81.50;;;;;;5056987;28;20057;-75
2022/05/18 12:01:04;;;;;;;5.68;2.20;;;27.70;82.20;;;;;;5055735;28;20109;-74
2022/05/18 12:04:17;;;;;;;7.80;2.43;;;27.80;79.70;;;;;;5056068;28;20527;-75
2022/05/18 12:07:01;;;;;;;3.42;1.60;;;27.70;80.10;;;;;;5024314;28;20044;-75
2022/05/18 12:10:03;;;;;;;2.70;0.90;;;27.80;75.30;;;;;;5054681;28;20054;-74
2022/05/18 12:13:02;;;;;;;5.65;1.08;;;28.00;79.50;;;;;;5056071;28;20072;-74
2022/05/18 12:15:37;;;;;;;5.68;0.77;;;28.10;73.90;;;;;;5055870;28;20447;-74
2022/05/18 12:18:35;;;;;;;6.57;1.23;;;28.20;71.60;;;;;;5056288;28;20040;-74
2022/05/18 12:21:23;;;;;;;6.05;2.10;;;28.40;71.90;;;;;;5056439;28;20017;-74
2022/05/18 12:23:53;;;;;;;;;;;28.50;70.20;;;;;;5056249;28;20118;-74
2022/05/18 12:26:21;;;;;;;2.22;0.75;;;28.70;69.10;;;;;;5055960;28;19909;-75
2022/05/18 12:28:48;;;;;;;4.53;1.50;;;28.80;68.30;;;;;;5054464;28;20033;-73
2022/05/18 12:31:15;;;;;;;3.80;1.10;;;28.90;67.70;;;;;;5055793;28;20029;-76
2022/05/18 12:33:59;;;;;;;5.72;0.85;;;29.20;67.30;;;;;;5056077;28;20541;-75
2022/05/18 12:36:34;;;;;;;5.13;1.02;;;29.50;65.50;;;;;;5055943;28;20395;-75
2022/05/18 12:39:33;;;;;;;10.02;1.23;;;29.60;66.30;;;;;;5055806;28;20024;-75
2022/05/18 12:42:02;;;;;;;3.63;1.00;;;29.80;64.60;;;;;;5055972;28;20025;-75
2022/05/18 12:44:44;;;;;;;3.42;0.30;;;29.80;64.60;;;;;;5054080;28;20049;-74
2022/05/18 12:47:19;;;;;;;8.95;1.70;;;30.00;64.30;;;;;;5053896;28;20152;-74
2022/05/18 12:49:45;;;;;;;1.33;0.20;;;30.20;66.40;;;;;;5055748;28;20025;-74
2022/05/18 12:52:34;;;;;;;2.28;0.30;;;30.50;65.80;;;;;;5055071;28;20372;-76
2022/05/18 12:55:19;;;;;;;5.07;0.47;;;30.40;61.80;;;;;;5054299;28;20025;-75
2022/05/18 12:57:54;;;;;;;2.70;0.68;;;30.40;61.40;;;;;;5053920;28;20033;-74
2022/05/18 13:00:20;;;;;;;3.88;0.10;;;30.60;63.10;;;;;;5055691;28;20106;-74
2022/05/18 13:02:55;;;;;;;4.13;1.10;;;30.90;62.30;;;;;;5053518;28;20052;-74
2022/05/18 13:05:26;;;;;;;1.77;0.52;;;31.10;61.80;;;;;;5055153;28;20028;-74
2022/05/18 13:07:55;;;;;;;2.28;0.90;;;31.30;62.00;;;;;;5055072;28;20379;-74
2022/05/18 13:10:38;;;;;;;3.97;0.68;;;31.20;59.60;;;;;;5053478;28;20029;-74
2022/05/18 13:13:25;;;;;;;3.92;0.40;;;31.20;61.80;;;;;;5054858;28;20025;-74
2022/05/18 13:15:59;;;;;;;3.13;0.93;;;31.40;63.10;;;;;;5054496;28;20028;-74
2022/05/18 13:18:37;;;;;;;4.65;0.82;;;31.40;61.20;;;;;;5054874;28;20033;-74
2022/05/18 13:21:08;;;;;;;3.95;1.00;;;31.30;61.90;;;;;;5053298;28;20509;-74
2022/05/18 13:23:55;;;;;;;2.33;0.65;;;31.30;61.10;;;;;;5053205;28;20025;-74